Terminal Aerodrome Forecast
Issued by NWS Portland, OR

Home | Current Version | Previous Version | Text Only | Print | Product List | Glossary On
Versions: 1 2 3 4 5 6 7 8 9 10 11 12 13 14 15 16 17 18 19 20 21 22 23 24 25 26 27 28 29 30
000
FTUS46 KPQR 270243 AAB
TAFHIO
TAF AMD
KHIO 270243Z 2703/2724 18006KT P6SM -RA OVC020
      TEMPO 2703/2706 2SM -RA BR
     FM270900 00000KT P6SM SCT020 BKN045
     FM271600 VRB03KT P6SM SCT250
     FM272100 08007KT P6SM BKN300=

USA.gov is the U.S. government's official web portal to all federal, state and local government web resources and services.